X  Bezárás Metar Aviation Weather Data     LHBP Budapest Liszt Ferenc International Airport
Hőmérséklet
5°C Hőmérséklet
0°C Harmatpont
70% Páratartalom



Szél
2 KM/H
1 MPH
0 M/S
1 KTS



Szélcsend
Észak
Current Conditions

Clear Clear
Pressure 1021.92 (hPa) - 30.18 (inHg)
Visibility 6.2 (mile) - 10 (km)
Repülőtér
Airport-code LHBP

Location: Budapest Liszt Ferenc International Airport
Távolság: 14 (km)

Metar:
LHBP 082030Z VRB01KT CAVOK 05/M00 Q1022 NOSIG

Idő: 08-05-2021 22:30 CEST